Apollonia — 9HEQ7 — position and weather

sailwx.info

Track history (hours):
 
Tides and Currents Weather Stations Pressure Air Temp Water Temp Dewpoint Dewpoint Depression Visibility Wind Speed Wind Dir Waves Ship Positions

Apollonia

Last reported at 2018-Apr-18 10:04 UTC. Time now 2018-Apr-20 04:56 UTC.
Position N 36°59' E 023°27'.

Length 164 m; draft 10 m.

Type: Cargo ship. MMSI: 215160000.

Date/timePositionNaut miles runAvg speedWind from/ knotsBaromVisibWave heightAir tempDewpointWater temp
2018-Apr-18 10:04N 36°59' E 023°27'38612.5
2018-Apr-17 03:06N 36°20' E 015°29'0 1.6
2018-Apr-17 02:58N 36°20' E 015°28'713.4
2018-Apr-17 02:28N 36°20' E 015°20'1313.0
2018-Apr-17 01:28N 36°21' E 015°04'612.9
2018-Apr-17 01:00N 36°22' E 014°57'914.9
2018-Apr-17 00:24N 36°25' E 014°46'614.6
2018-Apr-17 00:01N 36°26' E 014°39'612.0
2018-Apr-16 23:29N 36°28' E 014°32'714.4
2018-Apr-16 22:59N 36°29' E 014°23'713.1
2018-Apr-16 22:28N 36°30' E 014°14'716.1
2018-Apr-16 22:00N 36°32' E 014°05'610.4
2018-Apr-16 21:27N 36°34' E 013°59'612.9
2018-Apr-16 21:00N 36°35' E 013°52'815.5
2018-Apr-16 20:30N 36°36' E 013°42'612.2
2018-Apr-16 19:59N 36°38' E 013°35'611.8
2018-Apr-16 19:28N 36°39' E 013°27'612.4
2018-Apr-16 18:58N 36°41' E 013°20'613.2
2018-Apr-16 18:30N 36°42' E 013°12'714.2
2018-Apr-16 18:00N 36°44' E 013°04'  
2018-Apr-13 20:14N 36°01' W 005°13'311.6
2018-Apr-13 20:00N 36°01' W 005°17'8 3.3
2018-Apr-13 17:34N 36°08' W 005°22'0 0.1
2018-Apr-13 17:28N 36°08' W 005°22'0 0.0
2018-Apr-13 15:04N 36°08' W 005°22'0 0.0
2018-Apr-13 07:50N 36°08' W 005°22'0 1.4
2018-Apr-13 07:31N 36°08' W 005°22'3 5.5
2018-Apr-13 07:00N 36°05' W 005°20'11 0.8
2018-Apr-12 17:34N 36°02' W 005°07'413.0
2018-Apr-12 17:16N 36°02' W 005°12'414.3
2018-Apr-12 17:01N 36°01' W 005°16'815.3
2018-Apr-12 16:31N 35°58' W 005°25'  
2018-Apr-08 16:30N 33°06' W 023°02'611.9
2018-Apr-08 16:00N 33°04' W 023°09'  
Track history (hours):
 
Tides and Currents Weather Stations Pressure Air Temp Water Temp Dewpoint Dewpoint Depression Visibility Wind Speed Wind Dir Waves Ship Positions

Apollonia

Last reported at 2018-Apr-18 10:04 UTC. Time now 2018-Apr-20 04:56 UTC.
Position N 36°59' E 023°27'.

Length 164 m; draft 10 m.

Type: Cargo ship. MMSI: 215160000.

Date/timePositionNaut miles runAvg speedWind from/ knotsBaromVisibWave heightAir tempDewpointWater temp
2018-Apr-18 10:04N 36°59' E 023°27'38612.5
2018-Apr-17 03:06N 36°20' E 015°29'0 1.6
2018-Apr-17 02:58N 36°20' E 015°28'713.4
2018-Apr-17 02:28N 36°20' E 015°20'1313.0
2018-Apr-17 01:28N 36°21' E 015°04'612.9
2018-Apr-17 01:00N 36°22' E 014°57'914.9
2018-Apr-17 00:24N 36°25' E 014°46'614.6
2018-Apr-17 00:01N 36°26' E 014°39'612.0
2018-Apr-16 23:29N 36°28' E 014°32'714.4
2018-Apr-16 22:59N 36°29' E 014°23'713.1
2018-Apr-16 22:28N 36°30' E 014°14'716.1
2018-Apr-16 22:00N 36°32' E 014°05'610.4
2018-Apr-16 21:27N 36°34' E 013°59'612.9
2018-Apr-16 21:00N 36°35' E 013°52'815.5
2018-Apr-16 20:30N 36°36' E 013°42'612.2
2018-Apr-16 19:59N 36°38' E 013°35'611.8
2018-Apr-16 19:28N 36°39' E 013°27'612.4
2018-Apr-16 18:58N 36°41' E 013°20'613.2
2018-Apr-16 18:30N 36°42' E 013°12'714.2
2018-Apr-16 18:00N 36°44' E 013°04'  
2018-Apr-13 20:14N 36°01' W 005°13'311.6
2018-Apr-13 20:00N 36°01' W 005°17'8 3.3
2018-Apr-13 17:34N 36°08' W 005°22'0 0.1
2018-Apr-13 17:28N 36°08' W 005°22'0 0.0
2018-Apr-13 15:04N 36°08' W 005°22'0 0.0
2018-Apr-13 07:50N 36°08' W 005°22'0 1.4
2018-Apr-13 07:31N 36°08' W 005°22'3 5.5
2018-Apr-13 07:00N 36°05' W 005°20'11 0.8
2018-Apr-12 17:34N 36°02' W 005°07'413.0
2018-Apr-12 17:16N 36°02' W 005°12'414.3
2018-Apr-12 17:01N 36°01' W 005°16'815.3
2018-Apr-12 16:31N 35°58' W 005°25'  
2018-Apr-08 16:30N 33°06' W 023°02'611.9
2018-Apr-08 16:00N 33°04' W 023°09'  

Dump ship's entire track history